Imperatriz, Brazil
Current Conditions -  °F | °C
As of 12:00 PM on Saturday 20 Dec 2014 (Local Time) from SBTT Reporting Station
Broken Clouds Broken Clouds  
Wind Chill: 84°   Ceiling: 1700
Heat Index: 92°   Visibility: 6mi
Dew Point: 75°   Wind: 3mph
Humidity: 74%   Direction: 300°WNW
Pressure: 29.85"   Gusts: NA
Location:  5.3°S, 67.18°W
Report Text: SBTT 201600Z 30003KT 9999 BKN017 SCT100 29/24 Q1011
Loading
Personal Weather Stations






























Interactive Weather Map New forecast layout! Learn more

10-Day Weather Forecast

Advertisements
Track Severe Weather on mobile